MAPA DE AEROPUERTO

INFORMACIÓN METAR y TAF

METAR FOR VTBD
ADDS - METARS form results

(1116 UTC 01 December 2020)
Data provider http://aviationweather.gov/metar/data/
 
METAR text: VTBD 011100Z 03007KT 9999 FEW025 27/20 Q1012 NOSIG
Conditions at: VTBD (BANGKOK/DON MUAN, TH) observed 1100 UTC 01 December 2020
Temperature: 27.0°C (81°F)
Dewpoint: 20.0°C (68°F) [RH = 66%]
Pressure (altimeter): 29.88 inches Hg (1012.0 mb)
Winds: from the NNE (30 degrees) at 8 MPH (7 knots; 3.6 m/s)
Visibility: 6 or more miles (10+ km)
Ceiling: at least 12,000 feet AGL
Clouds: few clouds at 2500 feet AGL
Weather: no significant weather observed at this time

METAR text: VTBD 011030Z 03007KT 9999 FEW025 28/20 Q1012 NOSIG
Conditions at: VTBD (BANGKOK/DON MUAN, TH) observed 1030 UTC 01 December 2020
Temperature: 28.0°C (82°F)
Dewpoint: 20.0°C (68°F) [RH = 62%]
Pressure (altimeter): 29.88 inches Hg (1012.0 mb)
Winds: from the NNE (30 degrees) at 8 MPH (7 knots; 3.6 m/s)
Visibility: 6 or more miles (10+ km)
Ceiling: at least 12,000 feet AGL
Clouds: few clouds at 2500 feet AGL
Weather: no significant weather observed at this time

Forecast for: VTBD (BANGKOK/DON MUAN, TH)
Text: TAF VTBD 010500Z 0106/0212 03008KT 9999 FEW030
Forecast period: 0600 UTC 01 December 2020 to 1200 UTC 02 December 2020
Forecast type: FROM: standard forecast or significant change
Winds: from the NNE (30 degrees) at 9 MPH (8 knots; 4.1 m/s)
Visibility: 6 or more miles (10+ km)
Ceiling: at least 12,000 feet AGL
Clouds: few clouds at 3000 feet AGL
Weather: no significant weather forecast for this period